Time;durP1;ratioP1;P1;durP2;ratioP2;P2;SDS_P1;SDS_P2;PMS_P1;PMS_P2;Temp;Humidity;BMP_temperature;BMP_pressure;BME280_temperature;BME280_humidity;BME280_pressure;Samples;Min_cycle;Max_cycle;Signal;HPM_P1;HPM_P2
2022/01/21 00:01:06;;;;;;;24.17;11.15;;;;;;;;;;5092660;28;20024;-59
2022/01/21 00:03:32;;;;;;;31.42;13.70;;;;;;;;;;5096103;28;20551;-59
2022/01/21 00:05:58;;;;;;;17.88;7.82;;;;;;;;;;5096001;28;20492;-59
2022/01/21 00:08:25;;;;;;;13.98;7.38;;;;;;;;;;5095974;28;20027;-58
2022/01/21 00:10:51;;;;;;;25.02;11.15;;;;;;;;;;5095999;28;20117;-58
2022/01/21 00:13:36;;;;;;;34.60;16.77;;;;;;;;;;5095667;28;20020;-58
2022/01/21 00:16:15;;;;;;;26.38;10.70;;;;;;;;;;5095883;28;20036;-57
2022/01/21 00:18:43;;;;;;;15.18;6.45;;;;;;;;;;5095862;28;20074;-57
2022/01/21 00:32:11;;;;;;;14.05;5.65;;;;;;;;;;5095984;28;20386;-56
2022/01/21 00:34:37;;;;;;;15.60;5.28;;;;;;;;;;5095647;28;20168;-57
2022/01/21 00:37:03;;;;;;;19.70;8.10;;;;;;;;;;5095583;28;20366;-59
2022/01/21 00:39:32;;;;;;;16.35;7.68;;;;;;;;;;5094199;28;20031;-60
2022/01/21 00:42:14;;;;;;;17.15;6.97;;;;;;;;;;5095766;28;20020;-58
2022/01/21 00:44:40;;;;;;;21.00;9.48;;;;;;;;;;5095283;28;20092;-58
2022/01/21 00:47:07;;;;;;;20.38;9.65;;;;;;;;;;5095420;28;20020;-59
2022/01/21 00:49:38;;;;;;;17.38;6.10;;;;;;;;;;5095384;28;20028;-59
2022/01/21 00:52:04;;;;;;;11.60;5.50;;;;;;;;;;5095261;28;20047;-57
2022/01/21 00:54:35;;;;;;;13.07;4.97;;;;;;;;;;5095206;28;20055;-57
2022/01/21 00:57:03;;;;;;;36.30;14.00;;;;;;;;;;5093654;28;20028;-57
2022/01/21 00:59:29;;;;;;;14.20;5.80;;;;;;;;;;5095249;28;20155;-59
2022/01/21 01:01:55;;;;;;;18.45;6.13;;;;;;;;;;5095124;28;20020;-59
2022/01/21 01:04:27;;;;;;;12.45;6.20;;;;;;;;;;5094896;28;20024;-59
2022/01/21 01:06:59;;;;;;;18.63;7.53;;;;;;;;;;5095131;28;20042;-59
2022/01/21 01:09:25;;;;;;;12.23;4.93;;;;;;;;;;5094838;28;20020;-58
2022/01/21 01:20:03;;;;;;;9.98;3.78;;;;;;;;;;5094960;28;20039;-57
2022/01/21 01:27:50;;;;;;;11.35;4.28;;;;;;;;;;5094222;28;20043;-57
2022/01/21 01:30:17;;;;;;;18.23;7.63;;;;;;;;;;5094588;28;20055;-57
2022/01/21 01:32:44;;;;;;;20.08;8.93;;;;;;;;;;5094482;28;20024;-57
2022/01/21 01:35:11;;;;;;;8.30;3.80;;;;;;;;;;5094394;28;20038;-58
2022/01/21 01:50:57;;;;;;;36.15;10.07;;;;;;;;;;5094382;28;20043;-58
2022/01/21 01:53:25;;;;;;;35.17;10.32;;;;;;;;;;5094049;28;20020;-58
2022/01/21 01:55:52;;;;;;;28.73;8.50;;;;;;;;;;5094022;28;20024;-58
2022/01/21 01:58:18;;;;;;;29.92;9.00;;;;;;;;;;5094133;28;20393;-58
2022/01/21 02:00:49;;;;;;;26.70;8.20;;;;;;;;;;5094065;28;20024;-58
2022/01/21 02:03:15;;;;;;;23.08;7.70;;;;;;;;;;5093879;28;20013;-58
2022/01/21 02:05:42;;;;;;;18.98;7.28;;;;;;;;;;5094135;28;20102;-59
2022/01/21 02:08:11;;;;;;;19.20;7.40;;;;;;;;;;5093855;28;20024;-58
2022/01/21 02:10:38;;;;;;;12.80;4.57;;;;;;;;;;5093914;28;20040;-58
2022/01/21 02:13:17;;;;;;;10.23;4.35;;;;;;;;;;5093918;28;20371;-58
2022/01/21 02:15:43;;;;;;;11.77;3.97;;;;;;;;;;5093758;28;20379;-58
2022/01/21 02:23:39;;;;;;;13.63;5.78;;;;;;;;;;5093981;28;20054;-58
2022/01/21 02:26:05;;;;;;;11.27;4.70;;;;;;;;;;5093473;28;20650;-58
2022/01/21 02:28:31;;;;;;;11.50;4.25;;;;;;;;;;5093214;28;20139;-57
2022/01/21 02:30:59;;;;;;;10.50;3.30;;;;;;;;;;5093410;28;20473;-58
2022/01/21 02:33:26;;;;;;;19.48;5.13;;;;;;;;;;5093672;28;20024;-58
2022/01/21 02:35:52;;;;;;;11.52;5.60;;;;;;;;;;5093573;28;20050;-58
2022/01/21 02:38:18;;;;;;;8.10;4.10;;;;;;;;;;5093377;28;20020;-58
2022/01/21 02:40:44;;;;;;;15.52;6.47;;;;;;;;;;5093379;28;20020;-57
2022/01/21 02:43:11;;;;;;;13.25;4.00;;;;;;;;;;5093275;28;20020;-58
2022/01/21 02:45:39;;;;;;;8.23;3.42;;;;;;;;;;5093123;28;20419;-58
2022/01/21 02:48:09;;;;;;;17.98;4.90;;;;;;;;;;5095297;28;20381;-58
2022/01/21 02:50:35;;;;;;;7.43;3.17;;;;;;;;;;5100006;28;20385;-58
2022/01/21 02:53:26;;;;;;;12.25;4.35;;;;;;;;;;5099884;28;20046;-58
2022/01/21 02:55:53;;;;;;;10.88;4.93;;;;;;;;;;5099745;28;20024;-58
2022/01/21 02:58:19;;;;;;;9.95;3.58;;;;;;;;;;5100059;28;20589;-58
2022/01/21 03:00:45;;;;;;;9.13;4.68;;;;;;;;;;5100078;28;20051;-58
2022/01/21 03:03:11;;;;;;;12.48;4.97;;;;;;;;;;5099863;28;20028;-59
2022/01/21 03:05:39;;;;;;;9.70;3.60;;;;;;;;;;5100167;28;20031;-58
2022/01/21 03:08:06;;;;;;;11.80;4.05;;;;;;;;;;5099838;28;20030;-58
2022/01/21 03:10:32;;;;;;;7.88;3.42;;;;;;;;;;5099677;28;20111;-59
2022/01/21 03:12:58;;;;;;;15.90;5.60;;;;;;;;;;5099814;28;20428;-57
2022/01/21 03:15:24;;;;;;;14.05;5.43;;;;;;;;;;5099671;28;20024;-57
2022/01/21 03:17:50;;;;;;;8.77;4.50;;;;;;;;;;5100014;28;20032;-57
2022/01/21 03:20:16;;;;;;;13.27;4.63;;;;;;;;;;5099945;28;20028;-57
2022/01/21 03:22:43;;;;;;;14.00;4.50;;;;;;;;;;5099820;28;20020;-58
2022/01/21 03:25:09;;;;;;;11.75;3.58;;;;;;;;;;5099587;28;20473;-56
2022/01/21 03:27:36;;;;;;;9.65;3.35;;;;;;;;;;5099365;28;20028;-56
2022/01/21 03:30:05;;;;;;;12.32;2.92;;;;;;;;;;5099555;28;20035;-57
2022/01/21 03:32:31;;;;;;;8.77;2.90;;;;;;;;;;5099683;28;20024;-57
2022/01/21 03:34:57;;;;;;;9.93;3.63;;;;;;;;;;5099926;28;20024;-57
2022/01/21 03:37:23;;;;;;;10.40;3.28;;;;;;;;;;5099686;28;20054;-58
2022/01/21 03:39:49;;;;;;;12.88;5.45;;;;;;;;;;5099492;28;20028;-56
2022/01/21 03:42:15;;;;;;;14.45;5.43;;;;;;;;;;5099499;28;20035;-56
2022/01/21 03:44:41;;;;;;;10.65;3.85;;;;;;;;;;5099733;28;20051;-57
2022/01/21 03:47:07;;;;;;;13.18;4.00;;;;;;;;;;5099647;28;20039;-56
2022/01/21 03:49:40;;;;;;;7.85;4.13;;;;;;;;;;5099475;28;20030;-57
2022/01/21 03:52:06;;;;;;;10.52;4.30;;;;;;;;;;5099566;28;20528;-56
2022/01/21 03:54:37;;;;;;;9.00;4.32;;;;;;;;;;5099427;28;20065;-56
2022/01/21 03:57:04;;;;;;;11.30;4.10;;;;;;;;;;5099426;28;20020;-57
2022/01/21 03:59:30;;;;;;;13.82;5.30;;;;;;;;;;5098602;28;20361;-57
2022/01/21 04:01:56;;;;;;;11.90;5.57;;;;;;;;;;5096297;28;20447;-57
2022/01/21 04:04:22;;;;;;;12.10;5.28;;;;;;;;;;5096306;28;20027;-58
2022/01/21 04:06:48;;;;;;;16.83;5.80;;;;;;;;;;5096292;28;20425;-58
2022/01/21 04:09:15;;;;;;;13.23;4.95;;;;;;;;;;5096054;28;20024;-58
2022/01/21 04:11:41;;;;;;;15.60;7.53;;;;;;;;;;5095903;28;20510;-58
2022/01/21 04:14:07;;;;;;;14.85;6.40;;;;;;;;;;5096048;28;20046;-58
2022/01/21 04:16:33;;;;;;;18.60;6.97;;;;;;;;;;5095976;28;20077;-58
2022/01/21 04:19:00;;;;;;;14.52;6.20;;;;;;;;;;5096072;28;20095;-57
2022/01/21 04:21:28;;;;;;;23.52;9.27;;;;;;;;;;5095782;28;20024;-58
2022/01/21 04:23:54;;;;;;;22.42;8.52;;;;;;;;;;5095754;28;20027;-58
2022/01/21 04:26:20;;;;;;;18.65;7.53;;;;;;;;;;5095539;28;20040;-57
2022/01/21 04:28:46;;;;;;;16.83;6.78;;;;;;;;;;5095529;28;20067;-57
2022/01/21 04:31:15;;;;;;;15.73;6.50;;;;;;;;;;5095594;28;20111;-57
2022/01/21 04:33:43;;;;;;;10.73;4.57;;;;;;;;;;5095578;28;20018;-59
2022/01/21 04:36:11;;;;;;;11.93;4.03;;;;;;;;;;5095695;28;20482;-58
2022/01/21 04:38:38;;;;;;;12.75;4.13;;;;;;;;;;5095506;28;20103;-58
2022/01/21 04:47:17;;;;;;;16.83;8.60;;;;;;;;;;5095544;28;20489;-57
2022/01/21 04:49:31;;;;;;;26.42;10.27;;;;;;;;;;5095109;28;20062;-57
2022/01/21 04:52:03;;;;;;;20.17;8.07;;;;;;;;;;5095187;28;20035;-57
2022/01/21 04:54:34;;;;;;;22.60;11.00;;;;;;;;;;5095285;28;20012;-58
2022/01/21 04:57:01;;;;;;;20.80;8.85;;;;;;;;;;5095035;28;20024;-57
2022/01/21 04:59:27;;;;;;;20.35;9.38;;;;;;;;;;5095054;28;20028;-57
2022/01/21 05:01:54;;;;;;;19.10;7.43;;;;;;;;;;5094998;28;20055;-58
2022/01/21 05:04:21;;;;;;;17.77;8.07;;;;;;;;;;5095176;28;20047;-58
2022/01/21 05:06:49;;;;;;;19.30;8.45;;;;;;;;;;5094905;28;20016;-58
2022/01/21 05:09:16;;;;;;;10.07;4.60;;;;;;;;;;5094806;28;20028;-61
2022/01/21 05:11:45;;;;;;;19.92;6.85;;;;;;;;;;5094192;28;20038;-57
2022/01/21 05:14:21;;;;;;;15.55;5.97;;;;;;;;;;5094945;28;20020;-58
2022/01/21 05:16:49;;;;;;;11.98;3.90;;;;;;;;;;5094747;28;20435;-60
2022/01/21 05:19:18;;;;;;;10.25;3.70;;;;;;;;;;5094866;28;20024;-59
2022/01/21 05:21:45;;;;;;;12.05;4.85;;;;;;;;;;5094739;28;20500;-62
2022/01/21 05:24:11;;;;;;;19.58;6.05;;;;;;;;;;5094553;28;20016;-62
2022/01/21 05:26:40;;;;;;;26.33;8.55;;;;;;;;;;5094699;28;20032;-60
2022/01/21 05:29:10;;;;;;;17.83;6.55;;;;;;;;;;5094452;28;20060;-61
2022/01/21 05:31:37;;;;;;;14.10;4.65;;;;;;;;;;5094624;28;20032;-61
2022/01/21 05:34:03;;;;;;;15.25;5.10;;;;;;;;;;5094829;28;20024;-59
2022/01/21 05:36:31;;;;;;;13.52;6.65;;;;;;;;;;5094153;28;20028;-60
2022/01/21 05:39:01;;;;;;;10.40;5.07;;;;;;;;;;5093774;28;20008;-60
2022/01/21 05:41:29;;;;;;;13.27;5.78;;;;;;;;;;5094198;28;20020;-61
2022/01/21 05:44:06;;;;;;;24.30;9.63;;;;;;;;;;5093438;28;20032;-59
2022/01/21 05:48:59;;;;;;;59.30;28.15;;;;;;;;;;5094430;28;20489;-58
2022/01/21 05:51:25;;;;;;;36.63;17.92;;;;;;;;;;5094581;28;20031;-58
2022/01/21 05:53:51;;;;;;;22.70;9.48;;;;;;;;;;5094154;28;20063;-57
2022/01/21 05:56:17;;;;;;;23.15;10.10;;;;;;;;;;5094153;28;20055;-58
2022/01/21 05:58:43;;;;;;;22.23;10.45;;;;;;;;;;5094014;28;20477;-58
2022/01/21 06:01:09;;;;;;;28.25;12.05;;;;;;;;;;5094269;28;20054;-58
2022/01/21 06:03:36;;;;;;;29.67;10.27;;;;;;;;;;5094050;28;20020;-58
2022/01/21 06:06:02;;;;;;;24.58;10.10;;;;;;;;;;5093897;28;20366;-59
2022/01/21 06:08:28;;;;;;;82.32;40.03;;;;;;;;;;5093911;28;20020;-59
2022/01/21 06:10:54;;;;;;;50.90;24.63;;;;;;;;;;5093826;28;20060;-58
2022/01/21 06:13:22;;;;;;;31.02;13.35;;;;;;;;;;5093627;28;20027;-58
2022/01/21 06:15:48;;;;;;;47.38;17.30;;;;;;;;;;5093658;28;20020;-58
2022/01/21 06:18:17;;;;;;;28.83;11.60;;;;;;;;;;5093814;28;20092;-59
2022/01/21 06:20:43;;;;;;;28.88;12.73;;;;;;;;;;5093834;28;20167;-54
2022/01/21 06:23:09;;;;;;;18.08;9.32;;;;;;;;;;5092767;28;20466;-58
2022/01/21 06:25:35;;;;;;;18.67;8.20;;;;;;;;;;5093527;28;20073;-57
2022/01/21 06:28:01;;;;;;;34.53;12.27;;;;;;;;;;5093260;28;20532;-59
2022/01/21 06:30:27;;;;;;;29.48;11.85;;;;;;;;;;5093328;28;20040;-59
2022/01/21 06:32:53;;;;;;;26.85;10.70;;;;;;;;;;5093618;28;20474;-61
2022/01/21 06:35:20;;;;;;;23.30;10.35;;;;;;;;;;5093479;28;20497;-61
2022/01/21 06:37:46;;;;;;;28.80;12.07;;;;;;;;;;5093409;28;20103;-61
2022/01/21 06:40:12;;;;;;;22.65;10.65;;;;;;;;;;5093412;28;20073;-60
2022/01/21 06:42:41;;;;;;;31.00;12.32;;;;;;;;;;5093237;28;20035;-60
2022/01/21 06:45:07;;;;;;;34.05;12.07;;;;;;;;;;5093240;28;20012;-57
2022/01/21 06:47:33;;;;;;;26.27;10.63;;;;;;;;;;5093377;28;20028;-56
2022/01/21 06:49:59;;;;;;;21.90;8.55;;;;;;;;;;5093401;28;20066;-57
2022/01/21 06:52:30;;;;;;;21.63;9.60;;;;;;;;;;5093520;28;20036;-57
2022/01/21 06:54:56;;;;;;;21.13;7.70;;;;;;;;;;5093282;28;20063;-58
2022/01/21 06:57:22;;;;;;;19.08;8.30;;;;;;;;;;5093589;28;20034;-57
2022/01/21 06:59:49;;;;;;;19.85;9.02;;;;;;;;;;5093177;28;20032;-59
2022/01/21 07:02:18;;;;;;;21.50;10.40;;;;;;;;;;5093405;28;20044;-62
2022/01/21 07:04:44;;;;;;;37.22;18.83;;;;;;;;;;5093328;28;20045;-59
2022/01/21 07:07:10;;;;;;;17.52;8.52;;;;;;;;;;5093139;28;20059;-58
2022/01/21 07:09:36;;;;;;;18.73;7.95;;;;;;;;;;5093181;28;20049;-58
2022/01/21 07:12:03;;;;;;;22.13;9.10;;;;;;;;;;5093069;28;20389;-57
2022/01/21 07:14:29;;;;;;;21.17;9.27;;;;;;;;;;5093016;28;20028;-57
2022/01/21 07:16:57;;;;;;;17.92;8.38;;;;;;;;;;5092899;28;20035;-57
2022/01/21 07:19:23;;;;;;;18.60;7.85;;;;;;;;;;5093374;28;20020;-57
2022/01/21 07:21:49;;;;;;;25.88;11.15;;;;;;;;;;5093071;28;20052;-57
2022/01/21 07:24:15;;;;;;;38.83;14.93;;;;;;;;;;5092790;28;20385;-57
2022/01/21 07:26:41;;;;;;;18.90;8.25;;;;;;;;;;5093051;28;20031;-57
2022/01/21 07:29:07;;;;;;;18.08;7.75;;;;;;;;;;5092799;28;20051;-57
2022/01/21 07:31:33;;;;;;;21.83;8.20;;;;;;;;;;5092857;28;20036;-57
2022/01/21 07:34:04;;;;;;;21.48;8.93;;;;;;;;;;5093311;28;20434;-55
2022/01/21 07:36:30;;;;;;;28.52;14.85;;;;;;;;;;5096590;28;20055;-57
2022/01/21 07:38:56;;;;;;;13.07;5.10;;;;;;;;;;5096589;28;20028;-51
2022/01/21 07:41:22;;;;;;;12.57;5.20;;;;;;;;;;5096610;28;20024;-49
2022/01/21 07:43:48;;;;;;;14.43;6.00;;;;;;;;;;5096488;28;20059;-55
2022/01/21 07:46:14;;;;;;;16.65;5.55;;;;;;;;;;5096575;28;20115;-54
2022/01/21 07:48:40;;;;;;;11.40;4.60;;;;;;;;;;5096551;28;20055;-54
2022/01/21 07:51:06;;;;;;;10.45;4.57;;;;;;;;;;5096524;28;20032;-54
2022/01/21 07:53:35;;;;;;;18.17;8.07;;;;;;;;;;5096309;28;20072;-54
2022/01/21 07:56:01;;;;;;;14.40;5.82;;;;;;;;;;5096282;28;20024;-54
2022/01/21 07:58:28;;;;;;;19.38;10.32;;;;;;;;;;5096278;28;20046;-55
2022/01/21 08:00:54;;;;;;;9.55;5.72;;;;;;;;;;5096215;28;20028;-54
2022/01/21 08:03:20;;;;;;;12.68;6.97;;;;;;;;;;5096392;28;20106;-54
2022/01/21 08:05:49;;;;;;;16.25;7.18;;;;;;;;;;5096304;28;20043;-54
2022/01/21 08:08:15;;;;;;;17.85;7.18;;;;;;;;;;5096260;28;20052;-54
2022/01/21 08:10:41;;;;;;;11.93;5.85;;;;;;;;;;5096049;28;20020;-55
2022/01/21 08:13:07;;;;;;;14.45;8.02;;;;;;;;;;5095958;28;20038;-54
2022/01/21 08:15:36;;;;;;;10.23;6.00;;;;;;;;;;5096195;28;20115;-54
2022/01/21 08:18:05;;;;;;;14.10;6.78;;;;;;;;;;5094730;28;20032;-55
2022/01/21 08:20:31;;;;;;;9.68;5.05;;;;;;;;;;5095984;28;20122;-55
2022/01/21 08:22:57;;;;;;;11.63;6.68;;;;;;;;;;5095827;28;20029;-55
2022/01/21 08:25:24;;;;;;;13.82;5.40;;;;;;;;;;5095675;28;20020;-55
2022/01/21 08:27:50;;;;;;;8.77;5.30;;;;;;;;;;5095787;28;20539;-57
2022/01/21 08:30:16;;;;;;;17.58;7.85;;;;;;;;;;5095461;28;20028;-59
2022/01/21 08:32:43;;;;;;;9.88;5.78;;;;;;;;;;5095868;28;20370;-59
2022/01/21 08:35:12;;;;;;;15.38;7.15;;;;;;;;;;5095778;28;20020;-58
2022/01/21 08:37:38;;;;;;;19.13;9.65;;;;;;;;;;5094335;28;20480;-58
2022/01/21 08:40:05;;;;;;;12.27;6.28;;;;;;;;;;5095652;28;20016;-58
2022/01/21 08:42:31;;;;;;;13.02;6.85;;;;;;;;;;5095374;28;20035;-58
2022/01/21 08:44:57;;;;;;;13.82;6.57;;;;;;;;;;5095662;28;20500;-57
2022/01/21 08:47:23;;;;;;;10.40;6.07;;;;;;;;;;5094709;28;20093;-57
2022/01/21 08:49:51;;;;;;;7.70;4.18;;;;;;;;;;5095370;28;20023;-58
2022/01/21 08:52:23;;;;;;;7.70;3.90;;;;;;;;;;5095315;28;20054;-56
2022/01/21 08:54:50;;;;;;;10.25;4.10;;;;;;;;;;5095176;28;20442;-57
2022/01/21 08:57:16;;;;;;;12.90;4.28;;;;;;;;;;5095638;28;20161;-55
2022/01/21 08:59:42;;;;;;;9.35;3.70;;;;;;;;;;5095266;28;20031;-58
2022/01/21 09:02:09;;;;;;;9.88;3.30;;;;;;;;;;5095350;28;20058;-59
2022/01/21 09:04:35;;;;;;;10.15;4.60;;;;;;;;;;5095069;28;20024;-56
2022/01/21 09:07:02;;;;;;;13.57;7.38;;;;;;;;;;5094983;28;20027;-59
2022/01/21 09:09:29;;;;;;;15.30;7.43;;;;;;;;;;5095023;28;20062;-57
2022/01/21 09:11:59;;;;;;;35.53;18.10;;;;;;;;;;5094545;28;20485;-56
2022/01/21 09:14:26;;;;;;;12.38;6.32;;;;;;;;;;5095117;28;20378;-56
2022/01/21 09:16:53;;;;;;;59.58;27.02;;;;;;;;;;5094783;28;20024;-59
2022/01/21 09:19:19;;;;;;;24.92;10.52;;;;;;;;;;5094910;28;20023;-58
2022/01/21 09:21:51;;;;;;;29.13;14.65;;;;;;;;;;5094970;28;20066;-58
2022/01/21 09:24:17;;;;;;;10.23;5.55;;;;;;;;;;5094917;28;20155;-57
2022/01/21 09:26:43;;;;;;;15.38;7.60;;;;;;;;;;5094439;28;20024;-60
2022/01/21 09:29:09;;;;;;;10.18;5.55;;;;;;;;;;5094546;28;20498;-61
2022/01/21 09:31:36;;;;;;;11.48;6.72;;;;;;;;;;5094471;28;20040;-57
2022/01/21 09:34:03;;;;;;;16.48;8.57;;;;;;;;;;5094492;28;20025;-54
2022/01/21 09:36:30;;;;;;;22.17;12.15;;;;;;;;;;5094463;28;20024;-54
2022/01/21 09:38:56;;;;;;;25.65;11.82;;;;;;;;;;5094278;28;20139;-53
2022/01/21 09:41:22;;;;;;;28.15;17.73;;;;;;;;;;5094155;28;20028;-56
2022/01/21 09:43:52;;;;;;;34.03;21.67;;;;;;;;;;5094503;28;20017;-56
2022/01/21 09:46:20;;;;;;;15.77;8.20;;;;;;;;;;5094316;28;20016;-56
2022/01/21 09:48:54;;;;;;;9.95;5.53;;;;;;;;;;5094137;28;20099;-56
2022/01/21 09:51:20;;;;;;;11.57;5.93;;;;;;;;;;5094108;28;20071;-60
2022/01/21 09:53:46;;;;;;;8.80;2.88;;;;;;;;;;5094093;28;20024;-57
2022/01/21 09:56:16;;;;;;;7.05;3.78;;;;;;;;;;5093929;28;20028;-57
2022/01/21 09:58:46;;;;;;;14.40;4.70;;;;;;;;;;5094098;28;20036;-56
2022/01/21 10:01:13;;;;;;;10.90;5.20;;;;;;;;;;5093883;28;20474;-57
2022/01/21 10:03:42;;;;;;;11.32;3.60;;;;;;;;;;5093917;28;20461;-55
2022/01/21 10:06:09;;;;;;;7.60;3.22;;;;;;;;;;5094416;28;20024;-55
2022/01/21 10:08:38;;;;;;;6.75;2.53;;;;;;;;;;5093714;28;20020;-57
2022/01/21 10:11:04;;;;;;;9.10;3.65;;;;;;;;;;5093850;28;20032;-56
2022/01/21 10:13:34;;;;;;;13.32;5.22;;;;;;;;;;5093785;28;20472;-56
2022/01/21 10:16:02;;;;;;;10.93;3.17;;;;;;;;;;5093836;28;20055;-56
2022/01/21 10:18:28;;;;;;;11.15;4.28;;;;;;;;;;5093702;28;20097;-55
2022/01/21 10:20:57;;;;;;;9.88;3.95;;;;;;;;;;5093764;28;20101;-55
2022/01/21 10:23:23;;;;;;;10.98;4.55;;;;;;;;;;5093531;28;20028;-54
2022/01/21 10:25:59;;;;;;;11.93;3.95;;;;;;;;;;5093558;28;20024;-54
2022/01/21 10:28:25;;;;;;;16.02;4.47;;;;;;;;;;5093398;28;20059;-56
2022/01/21 10:31:03;;;;;;;13.18;3.63;;;;;;;;;;5093653;28;20020;-55
2022/01/21 10:33:29;;;;;;;9.95;2.72;;;;;;;;;;5093613;28;20077;-56
2022/01/21 10:36:20;;;;;;;11.75;2.85;;;;;;;;;;5093364;28;20043;-57
2022/01/21 10:38:49;;;;;;;9.80;3.53;;;;;;;;;;5093622;28;20024;-57
2022/01/21 10:41:18;;;;;;;11.05;2.95;;;;;;;;;;5093484;28;20055;-57
2022/01/21 10:43:45;;;;;;;6.05;2.65;;;;;;;;;;5093565;28;20194;-59
2022/01/21 10:46:16;;;;;;;13.68;3.88;;;;;;;;;;5093433;28;20023;-55
2022/01/21 10:49:04;;;;;;;14.32;3.78;;;;;;;;;;5093258;28;20099;-54
2022/01/21 10:51:32;;;;;;;11.68;3.25;;;;;;;;;;5093305;28;20035;-54
2022/01/21 10:53:59;;;;;;;14.00;3.38;;;;;;;;;;5093408;28;20466;-57
2022/01/21 10:56:29;;;;;;;14.18;3.50;;;;;;;;;;5093258;28;20032;-57
2022/01/21 10:58:56;;;;;;;10.82;3.42;;;;;;;;;;5093242;28;20029;-56
2022/01/21 11:01:29;;;;;;;11.38;4.22;;;;;;;;;;5093343;28;20023;-59
2022/01/21 11:03:55;;;;;;;14.05;4.55;;;;;;;;;;5093578;28;20031;-56
2022/01/21 11:06:24;;;;;;;20.50;8.68;;;;;;;;;;5093187;28;20016;-56
2022/01/21 11:08:50;;;;;;;18.75;7.90;;;;;;;;;;5093309;28;20035;-55
2022/01/21 11:11:23;;;;;;;15.95;6.45;;;;;;;;;;5097195;28;20059;-57
2022/01/21 11:13:49;;;;;;;11.70;3.13;;;;;;;;;;5097161;28;20024;-55
2022/01/21 11:16:22;;;;;;;10.73;2.95;;;;;;;;;;5097387;28;20080;-57
2022/01/21 11:19:06;;;;;;;13.80;4.95;;;;;;;;;;5097185;28;20055;-59
2022/01/21 11:21:44;;;;;;;20.90;4.57;;;;;;;;;;5097081;28;20482;-60
2022/01/21 11:24:12;;;;;;;13.93;3.63;;;;;;;;;;5097129;28;20485;-57
2022/01/21 11:26:40;;;;;;;15.10;5.00;;;;;;;;;;5096927;28;20035;-58
2022/01/21 11:29:07;;;;;;;8.35;3.55;;;;;;;;;;5096868;28;20048;-56
2022/01/21 11:31:34;;;;;;;13.63;4.88;;;;;;;;;;5096909;28;20060;-56
2022/01/21 11:34:02;;;;;;;20.95;4.57;;;;;;;;;;5097104;28;20043;-55
2022/01/21 11:36:29;;;;;;;13.35;3.17;;;;;;;;;;5095749;28;20028;-55
2022/01/21 11:38:56;;;;;;;12.68;4.75;;;;;;;;;;5096760;28;20012;-53
2022/01/21 11:41:24;;;;;;;19.48;8.85;;;;;;;;;;5096011;28;20066;-54
2022/01/21 11:43:53;;;;;;;10.60;3.97;;;;;;;;;;5096122;28;20020;-54
2022/01/21 11:46:39;;;;;;;13.27;5.38;;;;;;;;;;5096029;28;20031;-54
2022/01/21 11:49:17;;;;;;;11.68;4.28;;;;;;;;;;5093760;28;20050;-54
2022/01/21 11:51:43;;;;;;;39.67;17.10;;;;;;;;;;5092873;28;20032;-55
2022/01/21 11:54:10;;;;;;;36.40;11.82;;;;;;;;;;5095940;28;20023;-55
2022/01/21 11:56:51;;;;;;;28.13;11.52;;;;;;;;;;5095910;28;20035;-55
2022/01/21 11:59:31;;;;;;;23.98;10.73;;;;;;;;;;5094788;28;20020;-56
2022/01/21 12:01:57;;;;;;;25.02;11.13;;;;;;;;;;5094697;28;20042;-56
2022/01/21 12:04:23;;;;;;;16.45;6.82;;;;;;;;;;5096147;28;20023;-56
2022/01/21 12:06:49;;;;;;;27.75;9.68;;;;;;;;;;5095666;28;20020;-56
2022/01/21 12:09:16;;;;;;;33.05;12.38;;;;;;;;;;5095621;28;20032;-57
2022/01/21 12:11:42;;;;;;;42.15;19.60;;;;;;;;;;5095508;28;20381;-56
2022/01/21 12:14:49;;;;;;;102.72;49.20;;;;;;;;;;5095520;28;20459;-57
2022/01/21 12:17:35;;;;;;;50.47;22.40;;;;;;;;;;5033168;28;20080;-56
2022/01/21 12:20:05;;;;;;;65.80;29.40;;;;;;;;;;4944141;29;20043;-56
2022/01/21 12:22:31;;;;;;;32.78;14.88;;;;;;;;;;4944677;29;20035;-56
2022/01/21 12:25:08;;;;;;;35.13;12.60;;;;;;;;;;4945893;29;20061;-56
2022/01/21 12:27:35;;;;;;;32.80;13.40;;;;;;;;;;4943534;29;20024;-55
2022/01/21 12:30:26;;;;;;;40.38;11.23;;;;;;;;;;4944261;29;20122;-51
2022/01/21 12:32:55;;;;;;;42.70;14.57;;;;;;;;;;4888171;29;20120;-46
2022/01/21 12:35:22;;;;;;;40.03;13.13;;;;;;;;;;4887397;29;20041;-54
2022/01/21 12:39:05;;;;;;;21.58;6.97;;;;;;;;;;4888889;29;20028;-54
2022/01/21 12:41:04;;;;;;;49.13;15.93;;;;;;;;;;4886937;29;20041;-53
2022/01/21 12:43:49;;;;;;;30.23;9.50;;;;;;;;;;4887563;29;20055;-55
2022/01/21 12:46:29;;;;;;;63.72;21.77;;;;;;;;;;4889048;29;20043;-55
2022/01/21 12:48:59;;;;;;;52.25;17.35;;;;;;;;;;4884628;29;20040;-54
2022/01/21 12:56:47;;;;;;;60.47;23.65;;;;;;;;;;4984241;28;20078;-54
2022/01/21 12:59:20;;;;;;;43.58;16.98;;;;;;;;;;5043453;28;20497;-54
2022/01/21 13:01:46;;;;;;;32.17;10.40;;;;;;;;;;5042771;28;20036;-56
2022/01/21 13:04:28;;;;;;;25.33;11.38;;;;;;;;;;5041109;28;20025;-55
2022/01/21 13:07:03;;;;;;;50.08;23.38;;;;;;;;;;5041146;28;20025;-56
2022/01/21 13:09:47;;;;;;;83.80;39.85;;;;;;;;;;5056516;28;20388;-54
2022/01/21 13:12:16;;;;;;;40.47;17.95;;;;;;;;;;5093874;28;20501;-55
2022/01/21 13:14:51;;;;;;;48.03;21.25;;;;;;;;;;5093982;28;20028;-54
2022/01/21 13:17:18;;;;;;;31.45;12.63;;;;;;;;;;5094327;28;20032;-55
2022/01/21 13:19:44;;;;;;;27.35;11.52;;;;;;;;;;5094138;28;20461;-55
2022/01/21 13:22:22;;;;;;;19.75;8.77;;;;;;;;;;5094159;28;20040;-54
2022/01/21 13:24:57;;;;;;;18.00;6.38;;;;;;;;;;5092011;28;20024;-54
2022/01/21 13:27:24;;;;;;;10.57;4.22;;;;;;;;;;5093913;28;20036;-57
2022/01/21 13:29:52;;;;;;;19.40;7.78;;;;;;;;;;5093941;28;20069;-55
2022/01/21 13:32:23;;;;;;;20.55;7.03;;;;;;;;;;5093533;28;20042;-54
2022/01/21 13:34:49;;;;;;;22.20;8.18;;;;;;;;;;5091634;28;20012;-54
2022/01/21 13:37:18;;;;;;;19.63;9.52;;;;;;;;;;5093980;28;20043;-54
2022/01/21 13:39:45;;;;;;;24.40;8.48;;;;;;;;;;5093779;28;20504;-55
2022/01/21 13:42:14;;;;;;;16.25;6.78;;;;;;;;;;5093941;28;20044;-54
2022/01/21 13:44:46;;;;;;;17.95;6.20;;;;;;;;;;5093950;28;20084;-55
2022/01/21 13:47:31;;;;;;;28.23;10.82;;;;;;;;;;5090969;28;20020;-56
2022/01/21 13:50:18;;;;;;;14.75;5.95;;;;;;;;;;5091666;28;20027;-60
2022/01/21 13:52:52;;;;;;;40.28;16.80;;;;;;;;;;5092425;28;20032;-57
2022/01/21 13:55:28;;;;;;;20.00;8.82;;;;;;;;;;5092212;28;20276;-57
2022/01/21 13:57:55;;;;;;;23.50;9.10;;;;;;;;;;5073938;28;20028;-57
2022/01/21 14:00:29;;;;;;;42.53;19.17;;;;;;;;;;5081350;28;20039;-57
2022/01/21 14:03:06;;;;;;;39.30;18.05;;;;;;;;;;5091244;28;20024;-57
2022/01/21 14:05:41;;;;;;;70.00;27.42;;;;;;;;;;5090774;28;20055;-57
2022/01/21 14:08:12;;;;;;;69.13;31.85;;;;;;;;;;5093115;28;20020;-57
2022/01/21 14:10:40;;;;;;;71.53;32.35;;;;;;;;;;5093335;28;20014;-56
2022/01/21 14:13:06;;;;;;;38.47;16.58;;;;;;;;;;5093137;28;20112;-57
2022/01/21 14:15:32;;;;;;;27.48;7.30;;;;;;;;;;5090589;28;20382;-54
2022/01/21 14:17:59;;;;;;;27.92;10.50;;;;;;;;;;5093246;28;20019;-55
2022/01/21 14:20:25;;;;;;;22.70;7.93;;;;;;;;;;5093288;28;20611;-55
2022/01/21 14:22:51;;;;;;;54.53;23.95;;;;;;;;;;5090347;28;20021;-55
2022/01/21 14:25:17;;;;;;;30.42;13.40;;;;;;;;;;5093367;28;20031;-55
2022/01/21 14:27:48;;;;;;;41.03;17.67;;;;;;;;;;5092729;28;20430;-54
2022/01/21 14:30:15;;;;;;;40.83;16.73;;;;;;;;;;5090636;28;20036;-54
2022/01/21 14:32:42;;;;;;;36.40;15.55;;;;;;;;;;5092731;28;20039;-55
2022/01/21 14:35:14;;;;;;;54.55;23.92;;;;;;;;;;5092702;28;20048;-55
2022/01/21 14:37:47;;;;;;;33.83;13.68;;;;;;;;;;5091196;28;20027;-54
2022/01/21 14:40:15;;;;;;;30.70;11.13;;;;;;;;;;5090118;28;20070;-57
2022/01/21 14:42:42;;;;;;;32.15;10.05;;;;;;;;;;5092783;28;20069;-54
2022/01/21 14:45:13;;;;;;;26.00;10.57;;;;;;;;;;5092019;28;20020;-55
2022/01/21 14:47:44;;;;;;;43.88;16.35;;;;;;;;;;5090683;28;20077;-56
2022/01/21 14:50:14;;;;;;;43.95;16.30;;;;;;;;;;5092609;28;20020;-56
2022/01/21 14:52:42;;;;;;;38.80;17.10;;;;;;;;;;5092861;28;20447;-52
2022/01/21 14:55:09;;;;;;;44.58;17.67;;;;;;;;;;5092592;28;20032;-54
2022/01/21 14:57:35;;;;;;;86.68;39.65;;;;;;;;;;5088537;28;20020;-53
2022/01/21 15:00:03;;;;;;;37.80;18.05;;;;;;;;;;5092647;28;20099;-52
2022/01/21 15:02:29;;;;;;;47.35;23.40;;;;;;;;;;5092717;28;20477;-52
2022/01/21 15:04:56;;;;;;;71.53;30.63;;;;;;;;;;5092538;28;20055;-52
2022/01/21 15:07:25;;;;;;;30.85;10.43;;;;;;;;;;5067463;28;20034;-54
2022/01/21 15:09:54;;;;;;;25.85;9.70;;;;;;;;;;5063472;28;20594;-54
2022/01/21 15:15:12;;;;;;;38.47;14.90;;;;;;;;;;5061887;28;20090;-55
2022/01/21 15:17:40;;;;;;;37.20;14.15;;;;;;;;;;5061875;28;20020;-54
2022/01/21 15:20:07;;;;;;;43.40;16.65;;;;;;;;;;5063389;28;20023;-55
2022/01/21 15:22:33;;;;;;;39.10;17.77;;;;;;;;;;5062242;28;20589;-55
2022/01/21 15:24:59;;;;;;;53.38;22.95;;;;;;;;;;5062105;28;20082;-55
2022/01/21 15:27:25;;;;;;;47.55;18.55;;;;;;;;;;5061950;28;20773;-54
2022/01/21 15:29:52;;;;;;;83.00;35.78;;;;;;;;;;5061561;28;20056;-54
2022/01/21 15:32:18;;;;;;;63.67;29.83;;;;;;;;;;5062157;28;20047;-54
2022/01/21 15:34:44;;;;;;;33.72;14.32;;;;;;;;;;5061929;28;20028;-54